createdAt,value
2023-12-05T00:00:59.499Z,100347.81
2023-12-05T00:03:26.126Z,100338.28
2023-12-05T00:05:52.652Z,100337.44
2023-12-05T00:08:19.213Z,100339.41
2023-12-05T00:10:45.920Z,100352.63
2023-12-05T00:13:12.663Z,100340.59
2023-12-05T00:15:39.558Z,100333.78
2023-12-05T00:18:08.438Z,100332.19
2023-12-05T00:20:34.972Z,100328.59
2023-12-05T00:23:01.472Z,100327.81
2023-12-05T00:25:27.957Z,100326.56
2023-12-05T00:27:54.546Z,100322.97
2023-12-05T00:30:21.876Z,100312.50
2023-12-05T00:32:48.449Z,100304.50
2023-12-05T00:35:17.160Z,100308.50
2023-12-05T00:37:43.656Z,100301.28
2023-12-05T00:40:10.970Z,100300.06
2023-12-05T00:42:37.499Z,100296.91
2023-12-05T00:45:04.538Z,100298.81
2023-12-05T00:47:31.816Z,100301.28
2023-12-05T00:49:58.342Z,100301.69
2023-12-05T00:52:24.852Z,100305.31
2023-12-05T00:54:51.397Z,100307.66
2023-12-05T00:57:17.968Z,100299.63
2023-12-05T00:59:44.454Z,100294.44
2023-12-05T01:02:11.138Z,100293.63
2023-12-05T01:04:38.134Z,100294.78
2023-12-05T01:07:05.522Z,100280.81
2023-12-05T01:09:32.302Z,100287.16
2023-12-05T01:11:58.791Z,100285.16
2023-12-05T01:14:25.539Z,100285.16
2023-12-05T01:16:52.161Z,100293.16
2023-12-05T01:19:18.710Z,100274.69
2023-12-05T01:21:45.273Z,100278.28
2023-12-05T01:24:11.914Z,100273.91
2023-12-05T01:26:38.564Z,100272.31
2023-12-05T01:29:06.192Z,100277.94
2023-12-05T01:31:33.065Z,100270.66
2023-12-05T01:33:59.717Z,100270.25
2023-12-05T01:36:29.724Z,100264.63
2023-12-05T01:38:56.218Z,100274.28
2023-12-05T01:41:22.790Z,100277.84
2023-12-05T01:43:50.205Z,100264.19
2023-12-05T01:46:17.430Z,100259.34
2023-12-05T01:48:45.584Z,100259.34
2023-12-05T01:51:12.512Z,100256.53
2023-12-05T01:53:40.954Z,100251.72
2023-12-05T01:56:11.160Z,100251.28
2023-12-05T01:58:38.186Z,100251.28
2023-12-05T02:01:05.667Z,100244.09
2023-12-05T02:03:32.925Z,100246.47
2023-12-05T02:05:59.894Z,100253.66
2023-12-05T02:08:30.841Z,100253.66
2023-12-05T02:10:57.736Z,100246.47
2023-12-05T02:13:24.201Z,100252.03
2023-12-05T02:16:04.963Z,100253.22
2023-12-05T02:18:40.967Z,100239.59
2023-12-05T02:21:16.264Z,100239.19
2023-12-05T02:23:51.202Z,100241.22
2023-12-05T02:26:41.883Z,100238.41
2023-12-05T02:29:08.333Z,100244.81
2023-12-05T02:31:34.951Z,100239.59
2023-12-05T02:34:01.827Z,100245.59
2023-12-05T02:36:40.604Z,100237.53
2023-12-05T02:39:25.939Z,100233.13
2023-12-05T02:41:58.568Z,100222.31
2023-12-05T02:44:31.181Z,100217.91
2023-12-05T02:46:59.566Z,100218.66
2023-12-05T02:49:26.723Z,100218.66
2023-12-05T02:51:54.020Z,100222.25
2023-12-05T02:54:20.652Z,100208.63
2023-12-05T02:56:47.110Z,100205.47
2023-12-05T02:59:13.653Z,100203.81
2023-12-05T03:01:43.561Z,100203.72
2023-12-05T03:04:10.377Z,100200.91
2023-12-05T03:06:37.008Z,100196.06
2023-12-05T03:09:04.781Z,100196.91
2023-12-05T03:11:32.627Z,100201.28
2023-12-05T03:13:59.853Z,100185.22
2023-12-05T03:16:27.666Z,100196.47
2023-12-05T03:18:54.505Z,100196.47
2023-12-05T03:21:21.232Z,100194.09
2023-12-05T03:23:48.024Z,100201.28
2023-12-05T03:26:21.588Z,100203.66
2023-12-05T03:28:52.512Z,100200.06
2023-12-05T03:31:19.323Z,100206.09
2023-12-05T03:33:46.122Z,100208.13
2023-12-05T03:36:13.752Z,100214.13
2023-12-05T03:38:41.033Z,100192.84
2023-12-05T03:41:10.855Z,100203.66
2023-12-05T03:43:37.442Z,100202.50
2023-12-05T03:46:04.324Z,100194.09
2023-12-05T03:48:31.209Z,100204.91
2023-12-05T03:50:57.783Z,100204.91
2023-12-05T03:53:24.426Z,100201.69
2023-12-05T03:55:50.892Z,100198.81
2023-12-05T03:58:17.705Z,100205.69
2023-12-05T04:00:44.295Z,100204.44
2023-12-05T04:03:10.902Z,100198.81
2023-12-05T04:05:38.155Z,100198.03
2023-12-05T04:08:04.933Z,100197.25
2023-12-05T04:10:31.420Z,100198.38
2023-12-05T04:12:57.993Z,100207.63
2023-12-05T04:15:24.579Z,100207.63
2023-12-05T04:17:51.430Z,100198.81
2023-12-05T04:20:18.422Z,100207.63
2023-12-05T04:22:44.910Z,100202.00
2023-12-05T04:25:12.203Z,100195.56
2023-12-05T04:27:38.731Z,100197.16
2023-12-05T04:30:06.186Z,100194.78
2023-12-05T04:32:32.757Z,100193.19
2023-12-05T04:34:59.276Z,100199.53
2023-12-05T04:37:26.201Z,100199.53
2023-12-05T04:39:52.864Z,100188.28
2023-12-05T04:42:19.404Z,100184.31
2023-12-05T04:44:45.967Z,100192.31
2023-12-05T04:47:12.396Z,100189.09
2023-12-05T04:49:39.353Z,100183.09
2023-12-05T04:52:05.964Z,100177.91
2023-12-05T04:54:33.294Z,100183.03
2023-12-05T04:56:59.776Z,100189.91
2023-12-05T04:59:27.197Z,100177.06
2023-12-05T05:01:54.660Z,100174.69
2023-12-05T05:04:21.894Z,100177.06
2023-12-05T05:06:48.723Z,100182.69
2023-12-05T05:09:15.264Z,100161.91
2023-12-05T05:11:41.944Z,100174.69
2023-12-05T05:14:08.408Z,100178.66
2023-12-05T05:16:34.913Z,100178.66
2023-12-05T05:19:01.746Z,100181.81
2023-12-05T05:21:28.442Z,100183.88
2023-12-05T05:23:55.054Z,100179.50
2023-12-05T05:26:22.178Z,100177.41
2023-12-05T05:28:48.870Z,100183.84
2023-12-05T05:31:15.536Z,100175.84
2023-12-05T05:33:42.390Z,100170.56
2023-12-05T05:36:09.848Z,100178.22
2023-12-05T05:38:36.445Z,100176.19
2023-12-05T05:41:07.435Z,100169.78
2023-12-05T05:43:34.232Z,100175.41
2023-12-05T05:46:01.857Z,100178.22
2023-12-05T05:48:28.835Z,100168.97
2023-12-05T05:50:56.059Z,100177.41
2023-12-05T05:53:22.555Z,100181.81
2023-12-05T05:55:49.213Z,100172.59
2023-12-05T05:58:15.782Z,100171.34
2023-12-05T06:00:42.684Z,100164.94
2023-12-05T06:03:10.000Z,100166.97
2023-12-05T06:05:36.811Z,100164.59
2023-12-05T06:08:03.382Z,100174.97
2023-12-05T06:10:29.973Z,100173.38
2023-12-05T06:12:56.515Z,100167.41
2023-12-05T06:15:23.148Z,100172.16
2023-12-05T06:17:49.892Z,100166.53
2023-12-05T06:20:16.907Z,100172.16
2023-12-05T06:22:43.403Z,100166.53
2023-12-05T06:25:10.136Z,100170.56
2023-12-05T06:27:36.783Z,100167.31
2023-12-05T06:30:13.009Z,100168.19
2023-12-05T06:32:47.336Z,100171.78
2023-12-05T06:35:14.007Z,100175.41
2023-12-05T06:37:40.526Z,100161.06
2023-12-05T06:40:07.571Z,100172.59
2023-12-05T06:42:35.309Z,100165.72
2023-12-05T06:45:03.471Z,100163.34
2023-12-05T06:47:30.031Z,100161.41
2023-12-05T06:50:00.887Z,100165.81
2023-12-05T06:52:27.448Z,100166.16
2023-12-05T06:54:53.920Z,100168.97
2023-12-05T06:57:20.530Z,100168.97
2023-12-05T06:59:46.997Z,100163.00
2023-12-05T07:02:13.498Z,100173.03
2023-12-05T07:04:40.202Z,100169.84
2023-12-05T07:07:07.297Z,100165.47
2023-12-05T07:09:36.469Z,100170.66
2023-12-05T07:12:02.979Z,100173.03
2023-12-05T07:14:29.674Z,100183.03
2023-12-05T07:16:56.815Z,100172.22
2023-12-05T07:19:23.813Z,100186.66
2023-12-05T07:21:50.663Z,100169.41
2023-12-05T07:24:17.204Z,100174.59
2023-12-05T07:26:45.108Z,100176.19
2023-12-05T07:29:11.706Z,100173.81
2023-12-05T07:31:38.205Z,100183.03
2023-12-05T07:34:05.079Z,100187.09
2023-12-05T07:36:31.950Z,100180.22
2023-12-05T07:38:59.908Z,100178.28
2023-12-05T07:41:26.941Z,100187.50
2023-12-05T07:43:53.465Z,100190.69
2023-12-05T07:46:20.444Z,100187.88
2023-12-05T07:48:47.179Z,100186.28
2023-12-05T07:51:20.699Z,100183.88
2023-12-05T07:53:51.151Z,100190.75
2023-12-05T07:56:18.309Z,100186.69
2023-12-05T07:58:44.815Z,100192.31
2023-12-05T08:01:11.257Z,100200.31
2023-12-05T08:03:37.965Z,100191.53
2023-12-05T08:06:04.989Z,100196.38
2023-12-05T08:08:31.953Z,100212.00
2023-12-05T08:10:59.478Z,100197.94
2023-12-05T08:13:27.307Z,100202.72
2023-12-05T08:15:54.943Z,100212.38
2023-12-05T08:18:21.615Z,100206.75
2023-12-05T08:20:48.462Z,100200.31
2023-12-05T08:23:14.958Z,100205.94
2023-12-05T08:25:42.051Z,100204.31
2023-12-05T08:28:08.514Z,100203.50
2023-12-05T08:30:35.047Z,100204.31
2023-12-05T08:33:03.267Z,100205.91
2023-12-05T08:35:31.425Z,100201.50
2023-12-05T08:38:00.080Z,100202.72
2023-12-05T08:40:28.530Z,100198.69
2023-12-05T08:42:57.693Z,100207.47
2023-12-05T08:45:26.863Z,100201.84
2023-12-05T08:47:55.792Z,100197.81
2023-12-05T08:50:22.979Z,100193.06
2023-12-05T08:52:49.806Z,100199.03
2023-12-05T08:55:16.728Z,100194.66
2023-12-05T08:57:43.389Z,100200.19
2023-12-05T09:00:10.404Z,100205.03
2023-12-05T09:02:36.949Z,100189.72
2023-12-05T09:05:04.340Z,100207.38
2023-12-05T09:07:31.056Z,100210.56
2023-12-05T09:09:57.878Z,100211.78
2023-12-05T09:12:25.177Z,100216.97
2023-12-05T09:14:51.809Z,100209.75
2023-12-05T09:17:20.007Z,100221.38
2023-12-05T09:19:46.826Z,100216.97
2023-12-05T09:22:13.318Z,100224.56
2023-12-05T09:24:39.907Z,100228.97
2023-12-05T09:27:07.113Z,100230.97
2023-12-05T09:29:33.752Z,100220.16
2023-12-05T09:32:02.022Z,100226.94
2023-12-05T09:34:28.808Z,100223.34
2023-12-05T09:36:55.356Z,100226.94
2023-12-05T09:39:21.896Z,100217.31
2023-12-05T09:41:53.231Z,100227.72
2023-12-05T09:44:22.788Z,100227.28
2023-12-05T09:46:56.675Z,100222.47
2023-12-05T09:49:27.733Z,100232.13
2023-12-05T09:51:55.027Z,100219.28
2023-12-05T09:54:25.107Z,100218.41
2023-12-05T09:56:54.600Z,100225.63
2023-12-05T09:59:22.286Z,100222.47
2023-12-05T10:01:49.385Z,100220.00
2023-12-05T10:04:18.473Z,100213.94
2023-12-05T10:06:46.673Z,100220.00
2023-12-05T10:09:15.572Z,100203.84
2023-12-05T10:11:42.559Z,100208.25
2023-12-05T10:14:09.667Z,100208.59
2023-12-05T10:16:37.197Z,100201.75
2023-12-05T10:19:05.571Z,100201.31
2023-12-05T10:21:33.868Z,100203.25
2023-12-05T10:24:01.480Z,100198.06
2023-12-05T10:26:29.630Z,100194.00
2023-12-05T10:28:57.748Z,100194.75
2023-12-05T10:31:24.513Z,100198.72
2023-12-05T10:33:51.362Z,100201.88
2023-12-05T10:36:19.028Z,100197.03
2023-12-05T10:38:47.075Z,100200.22
2023-12-05T10:41:22.737Z,100201.00
2023-12-05T10:43:50.432Z,100186.50
2023-12-05T10:46:17.540Z,100192.13
2023-12-05T10:48:45.371Z,100192.81
2023-12-05T10:51:11.945Z,100191.25
2023-12-05T10:53:40.171Z,100185.97
2023-12-05T10:56:16.897Z,100193.19
2023-12-05T10:58:43.962Z,100188.34
2023-12-05T11:01:11.744Z,100194.31
2023-12-05T11:03:40.211Z,100186.22
2023-12-05T11:06:08.258Z,100184.22
2023-12-05T11:08:36.440Z,100178.25
2023-12-05T11:11:04.856Z,100180.16
2023-12-05T11:13:35.851Z,100176.13
2023-12-05T11:16:18.173Z,100180.53
2023-12-05T11:18:46.008Z,100182.09
2023-12-05T11:21:47.966Z,100180.97
2023-12-05T11:24:37.953Z,100174.91
2023-12-05T11:27:33.481Z,100177.72
2023-12-05T11:30:27.584Z,100170.50
2023-12-05T11:33:37.164Z,100173.31
2023-12-05T11:36:29.791Z,100176.47
2023-12-05T11:38:58.136Z,100183.69
2023-12-05T11:41:24.976Z,100178.06
2023-12-05T11:44:14.180Z,100184.47
2023-12-05T11:46:44.886Z,100186.88
2023-12-05T11:49:11.494Z,100186.88
2023-12-05T11:51:38.883Z,100185.22
2023-12-05T11:54:08.489Z,100181.16
2023-12-05T11:56:35.250Z,100188.03
2023-12-05T11:59:17.329Z,100181.94
2023-12-05T12:01:44.777Z,100177.88
2023-12-05T12:04:20.562Z,100181.16
2023-12-05T12:06:51.484Z,100183.88
2023-12-05T12:09:18.176Z,100188.28
2023-12-05T12:11:44.831Z,100189.09
2023-12-05T12:14:16.112Z,100188.28
2023-12-05T12:16:43.470Z,100190.66
2023-12-05T12:19:12.825Z,100195.50
2023-12-05T12:21:40.045Z,100195.41
2023-12-05T12:24:18.058Z,100197.44
2023-12-05T12:26:58.364Z,100187.41
2023-12-05T12:29:29.272Z,100189.00
2023-12-05T12:32:12.438Z,100185.41
2023-12-05T12:34:43.772Z,100189.44
2023-12-05T12:37:18.226Z,100189.34
2023-12-05T12:39:49.188Z,100183.72
2023-12-05T12:42:17.340Z,100185.31
2023-12-05T12:44:43.838Z,100178.41
2023-12-05T12:47:13.136Z,100179.66
2023-12-05T12:49:40.014Z,100188.91
2023-12-05T12:52:07.645Z,100187.25
2023-12-05T12:54:38.752Z,100181.59
2023-12-05T12:57:07.983Z,100184.88
2023-12-05T12:59:34.540Z,100190.84
2023-12-05T13:02:03.260Z,100186.00
2023-12-05T13:04:35.431Z,100192.00
2023-12-05T13:07:02.427Z,100181.59
2023-12-05T13:09:29.608Z,100182.31
2023-12-05T13:11:56.354Z,100187.94
2023-12-05T13:14:22.901Z,100182.31
2023-12-05T13:16:49.643Z,100186.38
2023-12-05T13:19:24.908Z,100184.00
2023-12-05T13:21:52.374Z,100184.69
2023-12-05T13:24:19.414Z,100183.09
2023-12-05T13:26:47.109Z,100180.63
2023-12-05T13:29:14.892Z,100173.84
2023-12-05T13:31:41.830Z,100179.03
2023-12-05T13:34:09.136Z,100168.22
2023-12-05T13:36:35.811Z,100176.66
2023-12-05T13:39:03.356Z,100178.59
2023-12-05T13:41:29.912Z,100182.22
2023-12-05T13:43:56.368Z,100176.59
2023-12-05T13:46:24.895Z,100183.00
2023-12-05T13:48:53.064Z,100187.06
2023-12-05T13:51:22.377Z,100191.47
2023-12-05T13:53:50.678Z,100186.63
2023-12-05T13:56:17.210Z,100200.69
2023-12-05T13:58:44.562Z,100195.88
2023-12-05T14:01:11.189Z,100194.28
2023-12-05T14:03:37.895Z,100190.25
2023-12-05T14:06:05.550Z,100189.88
2023-12-05T14:08:32.936Z,100195.88
2023-12-05T14:10:59.532Z,100187.88
2023-12-05T14:13:26.113Z,100199.13
2023-12-05T14:15:52.882Z,100195.88
2023-12-05T14:18:19.614Z,100200.25
2023-12-05T14:20:46.712Z,100200.25
2023-12-05T14:23:13.351Z,100193.41
2023-12-05T14:25:39.851Z,100201.50
2023-12-05T14:28:06.756Z,100203.06
2023-12-05T14:30:35.089Z,100199.03
2023-12-05T14:33:01.705Z,100203.84
2023-12-05T14:35:28.525Z,100195.88
2023-12-05T14:37:55.114Z,100209.47
2023-12-05T14:40:22.139Z,100203.84
2023-12-05T14:42:49.570Z,100208.69
2023-12-05T14:45:16.162Z,100203.84
2023-12-05T14:47:43.504Z,100215.13
2023-12-05T14:50:10.243Z,100205.44
2023-12-05T14:52:37.952Z,100205.53
2023-12-05T14:55:05.662Z,100215.91
2023-12-05T14:57:32.603Z,100210.28
2023-12-05T14:59:59.209Z,100215.91
2023-12-05T15:02:25.811Z,100210.28
2023-12-05T15:04:52.482Z,100223.13
2023-12-05T15:07:19.222Z,100210.28
2023-12-05T15:09:46.056Z,100210.28
2023-12-05T15:12:12.583Z,100215.91
2023-12-05T15:14:39.085Z,100216.69
2023-12-05T15:17:06.118Z,100220.75
2023-12-05T15:19:32.744Z,100215.13
2023-12-05T15:22:00.384Z,100219.97
2023-12-05T15:24:27.759Z,100223.56
2023-12-05T15:26:54.211Z,100230.00
2023-12-05T15:29:28.252Z,100227.19
2023-12-05T15:31:58.753Z,100231.22
2023-12-05T15:34:31.758Z,100230.00
2023-12-05T15:37:01.952Z,100231.22
2023-12-05T15:39:28.507Z,100234.03
2023-12-05T15:41:55.077Z,100236.84
2023-12-05T15:44:21.636Z,100237.63
2023-12-05T15:46:48.561Z,100230.88
2023-12-05T15:49:15.430Z,100242.47
2023-12-05T15:51:43.031Z,100240.09
2023-12-05T15:54:09.602Z,100235.28
2023-12-05T15:56:37.410Z,100246.88
2023-12-05T15:59:04.005Z,100244.06
2023-12-05T16:01:30.587Z,100246.56
2023-12-05T16:03:57.530Z,100244.84
2023-12-05T16:06:24.974Z,100244.50
2023-12-05T16:08:51.510Z,100248.47
2023-12-05T16:11:18.153Z,100249.72
2023-12-05T16:13:48.343Z,100248.13
2023-12-05T16:16:15.392Z,100241.69
2023-12-05T16:18:42.421Z,100249.72
2023-12-05T16:21:09.187Z,100249.72
2023-12-05T16:23:37.992Z,100244.50
2023-12-05T16:26:04.967Z,100239.22
2023-12-05T16:28:33.399Z,100242.47
2023-12-05T16:31:00.255Z,100242.03
2023-12-05T16:33:27.549Z,100245.63
2023-12-05T16:35:54.001Z,100251.28
2023-12-05T16:38:22.525Z,100245.63
2023-12-05T16:40:49.033Z,100246.47
2023-12-05T16:43:15.562Z,100235.28
2023-12-05T16:45:42.316Z,100238.00
2023-12-05T16:48:08.907Z,100252.88
2023-12-05T16:50:35.636Z,100248.47
2023-12-05T16:53:02.209Z,100254.47
2023-12-05T16:55:28.841Z,100251.66
2023-12-05T16:57:55.427Z,100253.75
2023-12-05T17:00:21.979Z,100255.34
2023-12-05T17:02:49.868Z,100253.66
2023-12-05T17:05:17.778Z,100254.47
2023-12-05T17:07:45.205Z,100256.03
2023-12-05T17:10:12.190Z,100250.06
2023-12-05T17:12:38.747Z,100256.84
2023-12-05T17:15:06.239Z,100263.25
2023-12-05T17:17:34.467Z,100262.47
2023-12-05T17:20:01.223Z,100264.03
2023-12-05T17:22:27.822Z,100261.22
2023-12-05T17:24:54.508Z,100267.66
2023-12-05T17:27:21.377Z,100274.53
2023-12-05T17:29:50.671Z,100267.66
2023-12-05T17:32:17.994Z,100272.91
2023-12-05T17:34:44.604Z,100282.97
2023-12-05T17:37:11.680Z,100274.53
2023-12-05T17:39:38.345Z,100277.69
2023-12-05T17:42:04.875Z,100276.13
2023-12-05T17:44:31.427Z,100276.13
2023-12-05T17:46:57.888Z,100282.09
2023-12-05T17:49:24.567Z,100284.13
2023-12-05T17:51:51.131Z,100284.91
2023-12-05T17:54:17.636Z,100294.94
2023-12-05T17:56:44.610Z,100283.31
2023-12-05T17:59:11.591Z,100297.41
2023-12-05T18:01:38.446Z,100290.53
2023-12-05T18:04:05.610Z,100297.78
2023-12-05T18:06:32.778Z,100287.28
2023-12-05T18:08:59.332Z,100293.69
2023-12-05T18:11:25.818Z,100287.28
2023-12-05T18:13:52.624Z,100290.53
2023-12-05T18:16:19.328Z,100293.25
2023-12-05T18:18:50.837Z,100294.50
2023-12-05T18:21:19.374Z,100288.50
2023-12-05T18:23:46.222Z,100286.50
2023-12-05T18:26:16.544Z,100282.88
2023-12-05T18:28:43.184Z,100286.13
2023-12-05T18:31:09.796Z,100294.88
2023-12-05T18:33:36.433Z,100291.69
2023-12-05T18:36:03.064Z,100295.66
2023-12-05T18:38:29.687Z,100293.63
2023-12-05T18:40:57.292Z,100296.09
2023-12-05T18:43:24.069Z,100294.44
2023-12-05T18:45:51.747Z,100298.03
2023-12-05T18:48:18.472Z,100296.88
2023-12-05T18:50:45.190Z,100304.44
2023-12-05T18:53:11.714Z,100302.44
2023-12-05T18:55:38.198Z,100298.47
2023-12-05T18:58:04.954Z,100307.25
2023-12-05T19:00:31.975Z,100302.06
2023-12-05T19:02:58.594Z,100305.69
2023-12-05T19:05:25.212Z,100308.94
2023-12-05T19:07:55.191Z,100315.28
2023-12-05T19:10:21.763Z,100306.38
2023-12-05T19:12:48.771Z,100314.81
2023-12-05T19:15:16.512Z,100306.91
2023-12-05T19:17:43.095Z,100311.22
2023-12-05T19:20:10.065Z,100303.56
2023-12-05T19:22:36.786Z,100317.31
2023-12-05T19:25:05.068Z,100316.06
2023-12-05T19:27:32.578Z,100317.66
2023-12-05T19:29:59.281Z,100315.22
2023-12-05T19:32:25.869Z,100333.66
2023-12-05T19:34:52.508Z,100323.22
2023-12-05T19:37:19.338Z,100320.84
2023-12-05T19:39:46.009Z,100319.25
2023-12-05T19:42:17.098Z,100326.03
2023-12-05T19:44:45.838Z,100330.06
2023-12-05T19:47:15.958Z,100328.84
2023-12-05T19:49:42.497Z,100320.13
2023-12-05T19:52:09.799Z,100334.03
2023-12-05T19:54:36.294Z,100324.88
2023-12-05T19:57:02.785Z,100328.03
2023-12-05T19:59:30.694Z,100326.47
2023-12-05T20:01:59.304Z,100334.03
2023-12-05T20:04:25.902Z,100332.44
2023-12-05T20:06:54.087Z,100339.22
2023-12-05T20:09:20.764Z,100332.00
2023-12-05T20:11:47.541Z,100326.81
2023-12-05T20:14:14.078Z,100332.00
2023-12-05T20:16:42.923Z,100337.22
2023-12-05T20:19:09.606Z,100340.03
2023-12-05T20:21:36.533Z,100336.41
2023-12-05T20:24:03.862Z,100340.81
2023-12-05T20:26:30.665Z,100328.75
2023-12-05T20:28:57.179Z,100335.19
2023-12-05T20:31:23.607Z,100332.72
2023-12-05T20:33:50.185Z,100335.63
2023-12-05T20:36:16.707Z,100335.19
2023-12-05T20:38:44.254Z,100331.13
2023-12-05T20:41:14.180Z,100343.19
2023-12-05T20:43:43.078Z,100339.16
2023-12-05T20:46:11.595Z,100339.16
2023-12-05T20:48:38.264Z,100335.97
2023-12-05T20:51:05.090Z,100329.53
2023-12-05T20:53:32.077Z,100339.94
2023-12-05T20:55:58.639Z,100337.13
2023-12-05T20:58:25.191Z,100333.16
2023-12-05T21:00:51.866Z,100332.28
2023-12-05T21:03:18.440Z,100339.16
2023-12-05T21:05:45.103Z,100331.03
2023-12-05T21:08:15.218Z,100320.66
2023-12-05T21:10:42.095Z,100328.66
2023-12-05T21:13:09.021Z,100325.50
2023-12-05T21:15:35.621Z,100327.88
2023-12-05T21:18:02.350Z,100330.72
2023-12-05T21:20:29.543Z,100328.22
2023-12-05T21:22:57.220Z,100333.44
2023-12-05T21:25:23.735Z,100323.81
2023-12-05T21:27:51.180Z,100330.63
2023-12-05T21:30:18.377Z,100332.22
2023-12-05T21:32:44.881Z,100331.03
2023-12-05T21:35:13.921Z,100341.44
2023-12-05T21:37:44.362Z,100339.50
2023-12-05T21:40:13.032Z,100323.38
2023-12-05T21:42:39.594Z,100334.59
2023-12-05T21:45:06.958Z,100337.41
2023-12-05T21:47:33.596Z,100338.28
2023-12-05T21:50:00.398Z,100330.25
2023-12-05T21:52:28.197Z,100337.41
2023-12-05T21:54:54.769Z,100337.41
2023-12-05T21:57:21.915Z,100338.97
2023-12-05T21:59:48.559Z,100335.81
2023-12-05T22:02:15.102Z,100340.22
2023-12-05T22:04:41.614Z,100341.44
2023-12-05T22:07:08.220Z,100343.03
2023-12-05T22:09:34.838Z,100352.63
2023-12-05T22:12:01.385Z,100351.84
2023-12-05T22:14:27.884Z,100352.63
2023-12-05T22:16:54.406Z,100363.88
2023-12-05T22:19:20.988Z,100352.63
2023-12-05T22:21:47.946Z,100360.28
2023-12-05T22:24:20.784Z,100373.13
2023-12-05T22:26:55.889Z,100370.31
2023-12-05T22:29:22.513Z,100368.75
2023-12-05T22:31:49.368Z,100372.78
2023-12-05T22:34:18.276Z,100369.53
2023-12-05T22:36:45.576Z,100371.91
2023-12-05T22:39:12.280Z,100360.72
2023-12-05T22:41:43.683Z,100369.53
2023-12-05T22:44:11.281Z,100378.75
2023-12-05T22:46:37.821Z,100369.19
2023-12-05T22:49:04.470Z,100373.56
2023-12-05T22:51:31.129Z,100382.72
2023-12-05T22:53:58.336Z,100375.94
2023-12-05T22:56:24.874Z,100384.78
2023-12-05T22:58:51.561Z,100386.78
2023-12-05T23:01:18.206Z,100389.97
2023-12-05T23:03:44.855Z,100392.78
2023-12-05T23:06:11.795Z,100389.97
2023-12-05T23:08:38.291Z,100389.59
2023-12-05T23:11:05.018Z,100391.19
2023-12-05T23:13:31.586Z,100384.84
2023-12-05T23:16:00.200Z,100396.38
2023-12-05T23:18:27.121Z,100391.97
2023-12-05T23:20:53.767Z,100389.16
2023-12-05T23:23:20.262Z,100389.59
2023-12-05T23:25:46.775Z,100385.13
2023-12-05T23:28:18.702Z,100391.53
2023-12-05T23:30:48.874Z,100391.53
2023-12-05T23:33:15.985Z,100392.78
2023-12-05T23:35:42.646Z,100396.38
2023-12-05T23:38:09.128Z,100393.91
2023-12-05T23:40:35.544Z,100386.34
2023-12-05T23:43:02.178Z,100396.72
2023-12-05T23:45:28.719Z,100390.41
2023-12-05T23:47:56.430Z,100393.66
2023-12-05T23:50:23.551Z,100392.69
2023-12-05T23:52:50.389Z,100393.47
2023-12-05T23:55:16.966Z,100395.94
2023-12-05T23:57:43.539Z,100395.16
